Terminal Aerodrome Forecast
Issued by NWS Sterling, VA

Current Version | Previous Version | Graphics & Text | Print | Product List | Glossary On
Versions: 1 2 3 4 5 6 7 8 9 10 11 12 13 14 15 16 17 18 19 20 21 22
000
FTUS41 KLWX 232335
TAFDCA
TAF
KDCA 232335Z 2400/2424 19005KT P6SM FEW250
     FM240900 32004KT P6SM SCT090
     FM241200 02008KT P6SM BKN070
     FM242200 03007KT P6SM SCT060=

USA.gov is the U.S. government's official web portal to all federal, state and local government web resources and services.